sensor_id;sensor_type;location;lat;lon;timestamp;temperature;humidity
45315;SHT31;31051;51.540;5.852;2023-11-21T00:12:19;7.0;93.1
45315;SHT31;31051;51.540;5.852;2023-11-21T00:25:18;7.2;93.3
45315;SHT31;31051;51.540;5.852;2023-11-21T00:38:17;7.3;93.4
45315;SHT31;31051;51.540;5.852;2023-11-21T00:51:16;7.3;93.4
45315;SHT31;31051;51.540;5.852;2023-11-21T01:04:16;7.1;93.4
45315;SHT31;31051;51.540;5.852;2023-11-21T01:17:15;6.9;93.4
45315;SHT31;31051;51.540;5.852;2023-11-21T01:30:14;7.1;93.6
45315;SHT31;31051;51.540;5.852;2023-11-21T01:43:13;7.2;93.8
45315;SHT31;31051;51.540;5.852;2023-11-21T01:56:13;7.3;93.9
45315;SHT31;31051;51.540;5.852;2023-11-21T02:09:12;7.5;93.9
45315;SHT31;31051;51.540;5.852;2023-11-21T02:22:11;7.5;93.9
45315;SHT31;31051;51.540;5.852;2023-11-21T02:35:10;7.6;93.9
45315;SHT31;31051;51.540;5.852;2023-11-21T02:48:10;7.6;93.8
45315;SHT31;31051;51.540;5.852;2023-11-21T03:01:09;7.4;93.8
45315;SHT31;31051;51.540;5.852;2023-11-21T03:14:08;7.3;93.9
45315;SHT31;31051;51.540;5.852;2023-11-21T03:27:07;7.3;93.9
45315;SHT31;31051;51.540;5.852;2023-11-21T03:40:07;7.1;93.9
45315;SHT31;31051;51.540;5.852;2023-11-21T03:53:06;7.1;94.2
45315;SHT31;31051;51.540;5.852;2023-11-21T04:06:05;7.0;94.1
45315;SHT31;31051;51.540;5.852;2023-11-21T04:19:04;6.9;94.1
45315;SHT31;31051;51.540;5.852;2023-11-21T04:32:04;6.9;94.2
45315;SHT31;31051;51.540;5.852;2023-11-21T04:45:03;6.9;94.2
45315;SHT31;31051;51.540;5.852;2023-11-21T04:58:02;6.8;94.2
45315;SHT31;31051;51.540;5.852;2023-11-21T05:11:01;6.8;94.2
45315;SHT31;31051;51.540;5.852;2023-11-21T05:24:01;6.8;94.2
45315;SHT31;31051;51.540;5.852;2023-11-21T05:37:00;6.8;94.2
45315;SHT31;31051;51.540;5.852;2023-11-21T05:49:59;6.7;94.2
45315;SHT31;31051;51.540;5.852;2023-11-21T06:02:58;6.8;94.0
45315;SHT31;31051;51.540;5.852;2023-11-21T06:15:58;6.9;93.7
45315;SHT31;31051;51.540;5.852;2023-11-21T06:28:57;6.8;93.8
45315;SHT31;31051;51.540;5.852;2023-11-21T06:41:56;6.9;93.8
45315;SHT31;31051;51.540;5.852;2023-11-21T06:54:55;6.9;93.8
45315;SHT31;31051;51.540;5.852;2023-11-21T07:07:55;6.9;93.9
45315;SHT31;31051;51.540;5.852;2023-11-21T07:20:54;7.0;93.9
45315;SHT31;31051;51.540;5.852;2023-11-21T07:33:53;7.0;93.9
45315;SHT31;31051;51.540;5.852;2023-11-21T07:46:52;7.0;94.1
45315;SHT31;31051;51.540;5.852;2023-11-21T07:59:52;7.0;94.0
45315;SHT31;31051;51.540;5.852;2023-11-21T08:12:51;7.1;94.2
45315;SHT31;31051;51.540;5.852;2023-11-21T08:25:50;7.1;94.3
45315;SHT31;31051;51.540;5.852;2023-11-21T08:38:49;7.2;94.5
45315;SHT31;31051;51.540;5.852;2023-11-21T08:51:49;7.3;94.6
45315;SHT31;31051;51.540;5.852;2023-11-21T09:04:48;7.5;94.7
45315;SHT31;31051;51.540;5.852;2023-11-21T09:17:47;7.6;94.4
45315;SHT31;31051;51.540;5.852;2023-11-21T09:30:46;7.8;94.4
45315;SHT31;31051;51.540;5.852;2023-11-21T09:43:46;8.0;94.5
45315;SHT31;31051;51.540;5.852;2023-11-21T09:56:45;8.2;94.4
45315;SHT31;31051;51.540;5.852;2023-11-21T10:09:44;8.4;94.5
45315;SHT31;31051;51.540;5.852;2023-11-21T10:22:43;8.5;94.3
45315;SHT31;31051;51.540;5.852;2023-11-21T10:35:43;8.9;94.2
45315;SHT31;31051;51.540;5.852;2023-11-21T10:48:42;9.3;94.4
45315;SHT31;31051;51.540;5.852;2023-11-21T11:01:41;9.4;93.5
45315;SHT31;31051;51.540;5.852;2023-11-21T11:14:41;9.7;93.3
45315;SHT31;31051;51.540;5.852;2023-11-21T11:27:40;10.0;93.0
45315;SHT31;31051;51.540;5.852;2023-11-21T11:40:39;10.1;92.3
45315;SHT31;31051;51.540;5.852;2023-11-21T11:53:38;9.9;91.5
45315;SHT31;31051;51.540;5.852;2023-11-21T12:06:38;10.3;92.4
45315;SHT31;31051;51.540;5.852;2023-11-21T12:19:37;10.1;91.2
45315;SHT31;31051;51.540;5.852;2023-11-21T12:32:36;9.8;91.4
45315;SHT31;31051;51.540;5.852;2023-11-21T12:45:36;9.9;92.3
45315;SHT31;31051;51.540;5.852;2023-11-21T12:58:35;10.1;91.8
45315;SHT31;31051;51.540;5.852;2023-11-21T13:11:34;10.2;91.6
45315;SHT31;31051;51.540;5.852;2023-11-21T13:24:34;10.5;91.5
45315;SHT31;31051;51.540;5.852;2023-11-21T13:37:33;10.4;90.3
45315;SHT31;31051;51.540;5.852;2023-11-21T13:50:32;10.5;90.8
45315;SHT31;31051;51.540;5.852;2023-11-21T14:03:32;10.9;90.6
45315;SHT31;31051;51.540;5.852;2023-11-21T14:16:31;10.9;89.5
45315;SHT31;31051;51.540;5.852;2023-11-21T14:29:30;10.9;89.3
45315;SHT31;31051;51.540;5.852;2023-11-21T14:42:30;10.6;88.9
45315;SHT31;31051;51.540;5.852;2023-11-21T14:55:29;10.4;89.7
45315;SHT31;31051;51.540;5.852;2023-11-21T15:08:28;10.3;89.5
45315;SHT31;31051;51.540;5.852;2023-11-21T15:21:27;10.2;89.5
45315;SHT31;31051;51.540;5.852;2023-11-21T15:34:27;10.1;89.5
45315;SHT31;31051;51.540;5.852;2023-11-21T15:47:26;10.1;89.3
45315;SHT31;31051;51.540;5.852;2023-11-21T16:00:25;10.1;89.0
45315;SHT31;31051;51.540;5.852;2023-11-21T16:13:25;9.8;88.7
45315;SHT31;31051;51.540;5.852;2023-11-21T16:26:24;9.6;88.7
45315;SHT31;31051;51.540;5.852;2023-11-21T16:39:23;9.5;88.8
45315;SHT31;31051;51.540;5.852;2023-11-21T16:52:22;9.2;88.4
45315;SHT31;31051;51.540;5.852;2023-11-21T17:05:22;8.9;88.7
45315;SHT31;31051;51.540;5.852;2023-11-21T17:18:21;8.4;88.2
45315;SHT31;31051;51.540;5.852;2023-11-21T17:31:20;8.3;87.9
45315;SHT31;31051;51.540;5.852;2023-11-21T17:44:20;8.1;86.8
45315;SHT31;31051;51.540;5.852;2023-11-21T17:57:19;8.1;86.7
45315;SHT31;31051;51.540;5.852;2023-11-21T18:10:18;7.8;85.7
45315;SHT31;31051;51.540;5.852;2023-11-21T18:23:17;7.5;85.5
45315;SHT31;31051;51.540;5.852;2023-11-21T18:36:17;7.0;85.8
45315;SHT31;31051;51.540;5.852;2023-11-21T18:49:16;6.7;85.6
45315;SHT31;31051;51.540;5.852;2023-11-21T19:02:15;6.3;85.7
45315;SHT31;31051;51.540;5.852;2023-11-21T19:15:14;6.1;87.1
45315;SHT31;31051;51.540;5.852;2023-11-21T19:28:14;5.9;87.0
45315;SHT31;31051;51.540;5.852;2023-11-21T19:41:13;5.7;87.4
45315;SHT31;31051;51.540;5.852;2023-11-21T19:54:12;5.5;86.9
45315;SHT31;31051;51.540;5.852;2023-11-21T20:07:11;5.4;86.9
45315;SHT31;31051;51.540;5.852;2023-11-21T20:20:10;5.0;85.8
45315;SHT31;31051;51.540;5.852;2023-11-21T20:33:10;4.9;87.5
45315;SHT31;31051;51.540;5.852;2023-11-21T20:46:09;4.9;87.4
45315;SHT31;31051;51.540;5.852;2023-11-21T20:59:08;4.9;88.6
45315;SHT31;31051;51.540;5.852;2023-11-21T21:12:07;4.7;87.2
45315;SHT31;31051;51.540;5.852;2023-11-21T21:25:06;4.7;88.3
45315;SHT31;31051;51.540;5.852;2023-11-21T21:38:06;4.5;87.4
45315;SHT31;31051;51.540;5.852;2023-11-21T21:51:05;4.4;87.9
45315;SHT31;31051;51.540;5.852;2023-11-21T22:04:04;4.2;87.7
45315;SHT31;31051;51.540;5.852;2023-11-21T22:17:03;4.3;89.5
45315;SHT31;31051;51.540;5.852;2023-11-21T22:30:02;4.3;89.2
45315;SHT31;31051;51.540;5.852;2023-11-21T22:43:02;4.4;90.3
45315;SHT31;31051;51.540;5.852;2023-11-21T22:56:01;4.5;90.2
45315;SHT31;31051;51.540;5.852;2023-11-21T23:09:00;4.2;88.4
45315;SHT31;31051;51.540;5.852;2023-11-21T23:21:59;3.6;87.5
45315;SHT31;31051;51.540;5.852;2023-11-21T23:34:58;3.2;87.9
45315;SHT31;31051;51.540;5.852;2023-11-21T23:47:57;3.3;88.3
